Time;durP1;ratioP1;P1;durP2;ratioP2;P2;SDS_P1;SDS_P2;PMS_P1;PMS_P2;Temp;Humidity;BMP_temperature;BMP_pressure;BME280_temperature;BME280_humidity;BME280_pressure;Samples;Min_cycle;Max_cycle;Signal;HPM_P1;HPM_P2
2022/11/28 05:06:32;;;;;;;;;61.25;52.25;;;;;;;;5933989;39;10001005;-59
2022/11/28 06:02:40;;;;;;;;;73.50;59.00;;;;;;;;6482555;39;9047;-61
2022/11/28 06:08:44;;;;;;;;;68.00;54.00;;;;;;;;6490854;39;8948;-60
2022/11/28 06:14:47;;;;;;;;;67.75;52.75;;;;;;;;6492451;39;8982;-60
2022/11/28 06:20:49;;;;;;;;;75.75;59.75;;;;;;;;6491249;39;8888;-59
2022/11/28 06:26:52;;;;;;;;;61.00;50.75;;;;;;;;6491355;46;9036;-61
2022/11/28 06:32:53;;;;;;;;;72.75;52.25;;;;;;;;6491997;31;8955;-60
2022/11/28 06:38:56;;;;;;;;;39.50;29.25;;;;;;;;6490404;31;8904;-60
2022/11/28 06:44:58;;;;;;;;;58.50;50.25;;;;;;;;6491022;39;9460;-60
2022/11/28 06:51:03;;;;;;;;;35.75;31.75;;;;;;;;6491083;31;8977;-60
2022/11/28 06:57:08;;;;;;;;;39.50;39.00;;;;;;;;6490058;39;8937;-62
2022/11/28 07:03:11;;;;;;;;;50.50;46.75;;;;;;;;6490041;39;9498;-60
2022/11/28 07:09:14;;;;;;;;;52.50;46.00;;;;;;;;6488509;31;8944;-60
2022/11/28 07:15:17;;;;;;;;;54.00;45.00;;;;;;;;6489095;31;8913;-60
2022/11/28 07:21:20;;;;;;;;;62.00;49.25;;;;;;;;6489486;39;8928;-60
2022/11/28 07:27:23;;;;;;;;;57.25;46.25;;;;;;;;6490348;39;9417;-61
2022/11/28 07:33:25;;;;;;;;;49.75;44.50;;;;;;;;6490270;31;9517;-59
2022/11/28 07:39:27;;;;;;;;;48.75;41.25;;;;;;;;6485293;46;8917;-61
2022/11/28 07:45:31;;;;;;;;;62.25;48.00;;;;;;;;6487753;31;9036;-61
2022/11/28 07:51:53;;;;;;;;;61.75;47.75;;;;;;;;6488423;31;8931;-61
2022/11/28 07:57:56;;;;;;;;;43.25;40.75;;;;;;;;6488056;39;9628;-61
2022/11/28 08:03:58;;;;;;;;;49.00;42.25;;;;;;;;6489364;31;8861;-59
2022/11/28 08:10:00;;;;;;;;;51.25;44.75;;;;;;;;6487689;46;9065;-61
2022/11/28 08:16:05;;;;;;;;;53.25;43.50;;;;;;;;6489266;39;9018;-61
2022/11/28 08:22:07;;;;;;;;;42.75;37.25;;;;;;;;6489274;31;8913;-61
2022/11/28 08:28:09;;;;;;;;;66.25;51.25;;;;;;;;6488910;46;8945;-59
2022/11/28 08:34:13;;;;;;;;;46.50;41.00;;;;;;;;6488352;31;8956;-61
2022/11/28 08:40:16;;;;;;;;;57.00;49.00;;;;;;;;6488427;31;9039;-60
2022/11/28 08:46:21;;;;;;;;;62.50;48.25;;;;;;;;6488219;39;8893;-60
2022/11/28 08:52:25;;;;;;;;;36.25;34.75;;;;;;;;6487167;31;8909;-60
2022/11/28 08:58:29;;;;;;;;;48.25;43.00;;;;;;;;6487195;31;9027;-60
2022/11/28 09:04:32;;;;;;;;;54.50;45.00;;;;;;;;6488219;46;8918;-61
2022/11/28 09:10:36;;;;;;;;;39.00;34.25;;;;;;;;6488436;39;8942;-61
2022/11/28 09:16:40;;;;;;;;;44.25;41.25;;;;;;;;6489108;39;8894;-61
2022/11/28 09:22:43;;;;;;;;;52.00;44.00;;;;;;;;6489662;31;8924;-60
2022/11/28 09:28:46;;;;;;;;;55.25;41.50;;;;;;;;6477104;31;9133;-60
2022/11/28 09:34:49;;;;;;;;;44.00;40.75;;;;;;;;6487766;39;8907;-61
2022/11/28 09:40:52;;;;;;;;;67.00;53.75;;;;;;;;6486594;39;8918;-61
2022/11/28 09:46:59;;;;;;;;;49.75;44.25;;;;;;;;6488697;39;8922;-60
2022/11/28 09:53:29;;;;;;;;;49.50;42.75;;;;;;;;6489506;46;8952;-60
2022/11/28 09:59:34;;;;;;;;;51.50;44.00;;;;;;;;6490539;31;9027;-59
2022/11/28 10:05:39;;;;;;;;;50.00;44.25;;;;;;;;6488502;39;8922;-61
2022/11/28 10:11:53;;;;;;;;;49.00;42.00;;;;;;;;6487272;39;8917;-59
2022/11/28 10:18:32;;;;;;;;;48.50;42.00;;;;;;;;6489059;39;10232;-59
2022/11/28 10:24:41;;;;;;;;;51.25;43.75;;;;;;;;6488816;39;9671;-60
2022/11/28 10:30:51;;;;;;;;;64.25;50.00;;;;;;;;6489020;46;8966;-60
2022/11/28 10:37:18;;;;;;;;;51.00;43.25;;;;;;;;6488293;31;8897;-61
2022/11/28 10:43:26;;;;;;;;;43.50;37.00;;;;;;;;6488624;31;8910;-60
2022/11/28 10:50:00;;;;;;;;;58.75;47.75;;;;;;;;6488031;39;8974;-60
2022/11/28 10:56:20;;;;;;;;;67.75;55.00;;;;;;;;6486897;31;8933;-60
2022/11/28 11:02:47;;;;;;;;;49.50;42.50;;;;;;;;6486754;39;9011;-61
2022/11/28 11:08:52;;;;;;;;;49.75;44.00;;;;;;;;6486438;39;8964;-61
2022/11/28 11:14:54;;;;;;;;;53.00;45.50;;;;;;;;6488274;46;8969;-60
2022/11/28 11:21:12;;;;;;;;;43.50;40.75;;;;;;;;6488528;39;8928;-60
2022/11/28 11:27:21;;;;;;;;;42.50;33.25;;;;;;;;6488309;39;8929;-60
2022/11/28 11:33:28;;;;;;;;;57.25;44.50;;;;;;;;6487723;31;9042;-61
2022/11/28 11:39:30;;;;;;;;;49.50;43.00;;;;;;;;6487721;46;9038;-59
2022/11/28 11:45:37;;;;;;;;;45.00;34.50;;;;;;;;6486358;31;8941;-60
2022/11/28 11:51:39;;;;;;;;;41.75;35.75;;;;;;;;6488319;39;8950;-60
2022/11/28 11:57:51;;;;;;;;;43.00;39.75;;;;;;;;6485876;31;9098;-60
2022/11/28 12:04:37;;;;;;;;;74.50;58.75;;;;;;;;6487269;39;9076;-60
2022/11/28 12:10:52;;;;;;;;;35.75;32.25;;;;;;;;6485227;31;9095;-60
2022/11/28 12:17:19;;;;;;;;;57.75;48.75;;;;;;;;6486417;39;8947;-59
2022/11/28 12:24:01;;;;;;;;;27.75;26.50;;;;;;;;6486483;39;9035;-60
2022/11/28 12:30:32;;;;;;;;;42.25;32.75;;;;;;;;6485461;39;10062;-61
2022/11/28 12:36:44;;;;;;;;;63.25;52.75;;;;;;;;6484542;46;8912;-62
2022/11/28 12:43:04;;;;;;;;;60.25;50.50;;;;;;;;6485681;39;8920;-61
2022/11/28 12:49:21;;;;;;;;;57.00;46.50;;;;;;;;6483833;46;9049;-60
2022/11/28 12:55:40;;;;;;;;;38.75;32.75;;;;;;;;6485041;39;8955;-60
2022/11/28 13:02:17;;;;;;;;;41.25;35.50;;;;;;;;6484146;39;9016;-59
2022/11/28 13:08:45;;;;;;;;;39.50;35.50;;;;;;;;6484362;39;9647;-60
2022/11/28 13:14:54;;;;;;;;;51.75;46.50;;;;;;;;6486005;39;8920;-60
2022/11/28 13:20:59;;;;;;;;;42.75;38.00;;;;;;;;6486874;31;8991;-60
2022/11/28 13:27:31;;;;;;;;;37.75;34.50;;;;;;;;6487542;31;8950;-60
2022/11/28 13:33:51;;;;;;;;;54.50;44.75;;;;;;;;6487890;39;10747;-59
2022/11/28 13:40:12;;;;;;;;;41.00;34.00;;;;;;;;6486487;46;8910;-62
2022/11/28 13:46:14;;;;;;;;;53.75;44.25;;;;;;;;6487509;31;9090;-61
2022/11/28 13:52:28;;;;;;;;;49.75;44.75;;;;;;;;6485593;31;9657;-61
2022/11/28 13:58:41;;;;;;;;;68.50;54.75;;;;;;;;6486295;39;8969;-61
2022/11/28 14:04:44;;;;;;;;;52.50;46.75;;;;;;;;6484501;46;8921;-59
2022/11/28 14:11:42;;;;;;;;;41.75;38.00;;;;;;;;6486245;31;8965;-60
2022/11/28 14:18:17;;;;;;;;;56.50;45.75;;;;;;;;6485897;39;8998;-60
2022/11/28 14:24:59;;;;;;;;;46.00;41.75;;;;;;;;6485892;39;8917;-61
2022/11/28 14:31:13;;;;;;;;;67.50;54.50;;;;;;;;6485448;46;9015;-59
2022/11/28 14:37:19;;;;;;;;;49.75;43.75;;;;;;;;6485836;39;8926;-61
2022/11/28 14:43:30;;;;;;;;;49.00;42.00;;;;;;;;6484924;39;8918;-59
2022/11/28 14:49:35;;;;;;;;;49.75;43.00;;;;;;;;6486951;31;8952;-59
2022/11/28 14:55:41;;;;;;;;;55.75;51.00;;;;;;;;6486415;31;8914;-61
2022/11/28 15:02:32;;;;;;;;;45.00;38.50;;;;;;;;6487561;31;9004;-59
2022/11/28 15:08:50;;;;;;;;;42.00;39.00;;;;;;;;6488075;39;8958;-59
2022/11/28 15:14:57;;;;;;;;;48.25;42.00;;;;;;;;6488784;39;8947;-59
2022/11/28 15:21:05;;;;;;;;;62.50;46.50;;;;;;;;6487886;39;8910;-60
2022/11/28 15:27:07;;;;;;;;;49.50;42.50;;;;;;;;6486924;31;8987;-59
2022/11/28 15:33:11;;;;;;;;;49.00;44.00;;;;;;;;6487349;46;8926;-59
2022/11/28 15:39:25;;;;;;;;;46.75;42.25;;;;;;;;6488859;39;9017;-59
2022/11/28 15:45:34;;;;;;;;;46.50;39.50;;;;;;;;6488909;31;8851;-60
2022/11/28 15:51:38;;;;;;;;;55.25;43.75;;;;;;;;6487679;46;8975;-60
2022/11/28 15:57:43;;;;;;;;;46.75;41.00;;;;;;;;6487830;39;8924;-61
2022/11/28 16:03:55;;;;;;;;;45.25;42.25;;;;;;;;6489255;39;8873;-61
2022/11/28 16:10:04;;;;;;;;;44.25;40.75;;;;;;;;6488997;39;8942;-59
2022/11/28 16:16:14;;;;;;;;;44.75;44.00;;;;;;;;6489236;31;8857;-60
2022/11/28 16:22:19;;;;;;;;;43.00;34.00;;;;;;;;6488406;46;8877;-60
2022/11/28 16:28:39;;;;;;;;;50.00;43.25;;;;;;;;6487505;46;9003;-60
2022/11/28 16:34:50;;;;;;;;;48.75;45.25;;;;;;;;6488149;39;8918;-60
2022/11/28 16:41:00;;;;;;;;;53.75;42.50;;;;;;;;6489577;39;8914;-61
2022/11/28 16:47:02;;;;;;;;;45.25;39.25;;;;;;;;6488965;31;8917;-61
2022/11/28 16:53:05;;;;;;;;;45.00;37.50;;;;;;;;6488411;39;8886;-60
2022/11/28 16:59:13;;;;;;;;;47.75;43.25;;;;;;;;6487361;31;8947;-59
2022/11/28 17:05:15;;;;;;;;;42.50;41.50;;;;;;;;6487216;31;8986;-60
2022/11/28 17:11:25;;;;;;;;;46.75;42.75;;;;;;;;6487226;47;8910;-61
2022/11/28 17:17:30;;;;;;;;;50.75;40.25;;;;;;;;6487322;39;8899;-61
2022/11/28 17:23:33;;;;;;;;;46.25;43.00;;;;;;;;6488034;31;8862;-60
2022/11/28 17:29:36;;;;;;;;;48.00;41.25;;;;;;;;6486119;47;9081;-59
2022/11/28 17:35:42;;;;;;;;;53.75;44.00;;;;;;;;6486587;31;8992;-59
2022/11/28 17:41:45;;;;;;;;;41.25;35.25;;;;;;;;6487654;39;8925;-59
2022/11/28 17:47:47;;;;;;;;;52.00;45.50;;;;;;;;6486181;31;8926;-61
2022/11/28 17:53:49;;;;;;;;;42.50;37.25;;;;;;;;6485904;47;9046;-60
2022/11/28 17:59:53;;;;;;;;;56.25;44.25;;;;;;;;6487294;39;8954;-60
2022/11/28 18:05:55;;;;;;;;;50.00;44.50;;;;;;;;6488086;31;8914;-60
2022/11/28 18:11:58;;;;;;;;;50.75;43.00;;;;;;;;6489179;39;9621;-59
2022/11/28 18:18:03;;;;;;;;;41.00;36.50;;;;;;;;6488956;46;8928;-60
2022/11/28 18:24:07;;;;;;;;;48.00;42.00;;;;;;;;6487573;46;8951;-60
2022/11/28 18:30:12;;;;;;;;;52.50;45.00;;;;;;;;6489230;39;9604;-60
2022/11/28 18:36:17;;;;;;;;;55.00;44.50;;;;;;;;6488556;39;8972;-60
2022/11/28 18:42:19;;;;;;;;;40.50;36.75;;;;;;;;6488222;46;8850;-60
2022/11/28 18:48:22;;;;;;;;;46.75;39.50;;;;;;;;6488438;46;8930;-60
2022/11/28 18:54:24;;;;;;;;;56.75;45.25;;;;;;;;6487905;31;8913;-60
2022/11/28 19:00:27;;;;;;;;;48.00;39.00;;;;;;;;6524765;36;9028;-59
2022/11/28 19:06:30;;;;;;;;;51.25;43.00;;;;;;;;6488593;39;10500;-60
2022/11/28 19:12:32;;;;;;;;;39.25;36.75;;;;;;;;6487979;46;8936;-60
2022/11/28 19:18:38;;;;;;;;;40.75;35.00;;;;;;;;6487955;31;9046;-60
2022/11/28 19:24:41;;;;;;;;;43.50;37.50;;;;;;;;6487922;39;8929;-59
2022/11/28 19:30:44;;;;;;;;;43.00;39.00;;;;;;;;6488721;31;8939;-60
2022/11/28 19:36:49;;;;;;;;;46.75;39.75;;;;;;;;6488948;39;8961;-60
2022/11/28 19:42:52;;;;;;;;;40.75;36.75;;;;;;;;6487955;39;9522;-61
2022/11/28 19:48:55;;;;;;;;;34.25;31.75;;;;;;;;6488271;39;8936;-60
2022/11/28 19:54:57;;;;;;;;;42.25;38.25;;;;;;;;6487452;39;9542;-60
2022/11/28 20:01:03;;;;;;;;;49.00;44.25;;;;;;;;6487558;31;8946;-60
2022/11/28 20:07:06;;;;;;;;;43.00;36.00;;;;;;;;6486821;39;8869;-60
2022/11/28 20:13:11;;;;;;;;;43.00;41.00;;;;;;;;6487064;39;8846;-59
2022/11/28 20:19:13;;;;;;;;;48.50;41.50;;;;;;;;6487269;31;8865;-60
2022/11/28 20:25:19;;;;;;;;;28.50;27.00;;;;;;;;6488196;31;8870;-59
2022/11/28 20:31:26;;;;;;;;;42.50;38.50;;;;;;;;6487384;39;8967;-60
2022/11/28 20:37:30;;;;;;;;;40.00;34.75;;;;;;;;6488161;39;9030;-61
2022/11/28 20:43:34;;;;;;;;;34.50;33.00;;;;;;;;6487271;46;8912;-60
2022/11/28 20:49:37;;;;;;;;;39.00;32.50;;;;;;;;6486658;39;8925;-60
2022/11/28 20:55:39;;;;;;;;;31.25;26.75;;;;;;;;6487196;31;8952;-58
2022/11/28 21:01:42;;;;;;;;;38.75;33.75;;;;;;;;6486981;46;8914;-60
2022/11/28 21:07:45;;;;;;;;;33.67;27.33;;;;;;;;6487674;39;8861;-60
2022/11/28 21:13:53;;;;;;;;;34.00;28.00;;;;;;;;6486974;47;8972;-59
2022/11/28 21:19:58;;;;;;;;;27.25;25.00;;;;;;;;6486649;47;8912;-59
2022/11/28 21:26:07;;;;;;;;;30.00;26.75;;;;;;;;6487224;39;9078;-59
2022/11/28 21:32:12;;;;;;;;;30.00;24.50;;;;;;;;6486397;39;9600;-59
2022/11/28 21:38:15;;;;;;;;;32.00;25.50;;;;;;;;6486677;39;8977;-59
2022/11/28 21:44:19;;;;;;;;;20.75;20.75;;;;;;;;6489091;39;9588;-59
2022/11/28 21:50:22;;;;;;;;;26.50;25.75;;;;;;;;6488402;39;8922;-59
2022/11/28 21:56:25;;;;;;;;;27.50;24.25;;;;;;;;6488960;39;8861;-60
2022/11/28 22:02:28;;;;;;;;;40.00;28.00;;;;;;;;6488851;31;8946;-61
2022/11/28 22:08:34;;;;;;;;;33.50;27.00;;;;;;;;6489194;31;8937;-59
2022/11/28 22:14:37;;;;;;;;;34.25;30.50;;;;;;;;6488543;39;8921;-60
2022/11/28 22:20:40;;;;;;;;;26.25;24.75;;;;;;;;6488058;39;8885;-59
2022/11/28 22:26:49;;;;;;;;;21.50;18.25;;;;;;;;6487427;31;9583;-60
2022/11/28 22:32:52;;;;;;;;;29.00;26.50;;;;;;;;6488806;36;9058;-59
2022/11/28 22:38:56;;;;;;;;;38.50;30.25;;;;;;;;6487983;39;8872;-60
2022/11/28 22:45:00;;;;;;;;;27.50;24.50;;;;;;;;6489029;31;8890;-58
2022/11/28 22:51:20;;;;;;;;;29.25;27.50;;;;;;;;6487989;39;8900;-59
2022/11/28 22:57:23;;;;;;;;;26.25;21.00;;;;;;;;6488906;39;9579;-59
2022/11/28 23:03:25;;;;;;;;;26.50;25.75;;;;;;;;6488618;39;9002;-59
2022/11/28 23:09:28;;;;;;;;;30.50;27.75;;;;;;;;6487317;46;8920;-59
2022/11/28 23:15:31;;;;;;;;;33.00;26.75;;;;;;;;6487891;39;8914;-59
2022/11/28 23:21:37;;;;;;;;;35.25;32.75;;;;;;;;6487812;39;8979;-60
2022/11/28 23:27:42;;;;;;;;;38.75;32.75;;;;;;;;6488390;31;8868;-58
2022/11/28 23:33:48;;;;;;;;;27.00;26.75;;;;;;;;6487868;39;8859;-60
2022/11/28 23:39:51;;;;;;;;;41.25;32.75;;;;;;;;6488125;39;8958;-60
2022/11/28 23:45:55;;;;;;;;;40.25;28.50;;;;;;;;6488366;39;8876;-59
2022/11/28 23:51:58;;;;;;;;;33.75;28.50;;;;;;;;6488032;39;8903;-60
2022/11/28 23:58:01;;;;;;;;;31.00;24.00;;;;;;;;6487863;39;8964;-58
